createdAt,value
2022-09-23T00:01:54.205Z,6.23
2022-09-23T00:03:59.516Z,6.23
2022-09-23T00:06:03.904Z,6.14
2022-09-23T00:08:08.340Z,6.17
2022-09-23T00:10:13.421Z,6.25
2022-09-23T00:12:15.344Z,6.13
2022-09-23T00:14:17.805Z,6.17
2022-09-23T00:16:30.527Z,6.23
2022-09-23T00:18:32.727Z,6.26
2022-09-23T00:20:36.385Z,6.27
2022-09-23T00:22:39.109Z,6.37
2022-09-23T00:24:41.969Z,6.34
2022-09-23T00:26:43.900Z,6.34
2022-09-23T00:28:46.480Z,6.37
2022-09-23T00:30:48.469Z,6.28
2022-09-23T00:32:53.087Z,6.27
2022-09-23T00:34:55.933Z,6.12
2022-09-23T00:36:57.733Z,6.16
2022-09-23T00:39:00.192Z,6.04
2022-09-23T00:41:08.116Z,5.98
2022-09-23T00:43:14.065Z,5.98
2022-09-23T00:45:17.166Z,5.96
2022-09-23T00:47:35.469Z,5.80
2022-09-23T00:49:37.363Z,5.83
2022-09-23T00:51:47.241Z,5.74
2022-09-23T00:53:51.864Z,5.68
2022-09-23T00:56:00.471Z,5.71
2022-09-23T00:58:12.507Z,5.64
2022-09-23T01:00:14.875Z,5.68
2022-09-23T01:02:21.244Z,5.69
2022-09-23T01:04:24.819Z,5.71
2022-09-23T01:06:29.496Z,5.62
2022-09-23T01:08:32.453Z,5.59
2022-09-23T01:11:15.464Z,5.51
2022-09-23T01:13:37.424Z,5.58
2022-09-23T01:15:50.557Z,5.71
2022-09-23T01:18:08.890Z,5.78
2022-09-23T01:20:29.316Z,5.87
2022-09-23T01:22:39.860Z,5.87
2022-09-23T01:24:46.825Z,5.81
2022-09-23T01:27:00.885Z,5.89
2022-09-23T01:29:48.369Z,5.86
2022-09-23T01:31:53.460Z,5.88
2022-09-23T01:34:12.105Z,5.93
2022-09-23T01:36:35.670Z,6.03
2022-09-23T01:38:51.617Z,5.99
2022-09-23T01:41:23.840Z,5.95
2022-09-23T01:43:40.630Z,5.94
2022-09-23T01:45:46.448Z,5.96
2022-09-23T01:47:55.164Z,6.00
2022-09-23T01:50:25.428Z,5.88
2022-09-23T01:52:39.089Z,5.74
2022-09-23T01:54:53.406Z,5.82
2022-09-23T01:57:04.476Z,5.81
2022-09-23T01:59:21.774Z,5.73
2022-09-23T02:01:42.761Z,5.64
2022-09-23T02:04:08.781Z,5.56
2022-09-23T02:06:29.741Z,5.57
2022-09-23T02:08:53.792Z,5.50
2022-09-23T02:11:00.760Z,5.39
2022-09-23T02:13:15.853Z,5.20
2022-09-23T02:15:32.835Z,5.32
2022-09-23T02:17:47.111Z,5.33
2022-09-23T02:19:54.766Z,5.26
2022-09-23T02:22:17.644Z,5.27
2022-09-23T02:24:29.932Z,5.33
2022-09-23T02:26:54.612Z,5.04
2022-09-23T02:29:08.939Z,5.14
2022-09-23T02:31:21.812Z,5.05
2022-09-23T02:33:49.513Z,5.20
2022-09-23T02:35:59.937Z,5.20
2022-09-23T02:38:23.263Z,5.01
2022-09-23T02:40:39.385Z,4.95
2022-09-23T02:43:04.889Z,4.78
2022-09-23T02:45:07.240Z,4.64
2022-09-23T02:47:10.743Z,4.77
2022-09-23T02:49:42.102Z,4.75
2022-09-23T02:51:45.671Z,4.73
2022-09-23T02:53:48.098Z,4.61
2022-09-23T02:55:51.985Z,4.73
2022-09-23T02:57:53.855Z,4.70
2022-09-23T02:59:56.161Z,4.64
2022-09-23T03:02:32.739Z,4.61
2022-09-23T03:04:43.526Z,4.63
2022-09-23T03:07:03.604Z,4.52
2022-09-23T03:10:04.734Z,4.60
2022-09-23T03:12:09.483Z,4.78
2022-09-23T03:14:25.794Z,4.80
2022-09-23T03:16:40.484Z,4.81
2022-09-23T03:18:51.967Z,4.74
2022-09-23T03:21:02.268Z,4.64
2022-09-23T03:23:09.288Z,4.62
2022-09-23T03:25:19.048Z,4.74
2022-09-23T03:27:27.916Z,4.68
2022-09-23T03:29:32.779Z,4.77
2022-09-23T03:31:36.567Z,4.86
2022-09-23T03:33:42.265Z,4.83
2022-09-23T03:36:13.538Z,4.66
2022-09-23T03:38:17.065Z,4.61
2022-09-23T03:40:29.929Z,4.71
2022-09-23T03:42:33.378Z,4.82
2022-09-23T03:44:39.281Z,4.66
2022-09-23T03:46:49.943Z,4.50
2022-09-23T03:48:51.931Z,4.40
2022-09-23T03:50:53.878Z,4.54
2022-09-23T03:52:56.057Z,4.47
2022-09-23T03:54:58.261Z,4.49
2022-09-23T03:57:03.236Z,4.52
2022-09-23T03:59:06.065Z,4.59
2022-09-23T04:01:08.017Z,4.60
2022-09-23T04:03:11.959Z,4.60
2022-09-23T04:05:14.490Z,4.64
2022-09-23T04:07:17.815Z,4.63
2022-09-23T04:09:19.688Z,4.63
2022-09-23T04:11:21.688Z,4.60
2022-09-23T04:13:23.496Z,4.63
2022-09-23T04:15:25.489Z,4.63
2022-09-23T04:17:27.376Z,4.62
2022-09-23T04:19:29.256Z,4.55
2022-09-23T04:21:33.339Z,4.54
2022-09-23T04:23:35.175Z,4.53
2022-09-23T04:25:43.961Z,4.47
2022-09-23T04:27:46.841Z,4.43
2022-09-23T04:29:49.686Z,4.41
2022-09-23T04:31:53.503Z,4.46
2022-09-23T04:33:55.625Z,4.40
2022-09-23T04:35:57.518Z,4.36
2022-09-23T04:37:59.434Z,4.35
2022-09-23T04:40:04.043Z,4.37
2022-09-23T04:42:06.114Z,4.30
2022-09-23T04:44:08.607Z,4.29
2022-09-23T04:46:13.773Z,4.34
2022-09-23T04:48:16.447Z,4.25
2022-09-23T04:50:18.697Z,4.30
2022-09-23T04:52:20.609Z,4.31
2022-09-23T04:54:22.485Z,4.24
2022-09-23T04:56:29.172Z,4.29
2022-09-23T04:58:31.202Z,4.24
2022-09-23T05:00:33.764Z,4.27
2022-09-23T05:02:36.875Z,4.28
2022-09-23T05:04:40.855Z,4.24
2022-09-23T05:06:45.396Z,4.25
2022-09-23T05:08:55.875Z,4.34
2022-09-23T05:11:04.982Z,4.39
2022-09-23T05:13:06.854Z,4.42
2022-09-23T05:15:08.995Z,4.48
2022-09-23T05:17:11.865Z,4.52
2022-09-23T05:19:15.122Z,4.58
2022-09-23T05:21:19.763Z,4.59
2022-09-23T05:23:26.129Z,4.72
2022-09-23T05:25:35.111Z,4.74
2022-09-23T05:27:42.664Z,4.71
2022-09-23T05:29:47.815Z,4.86
2022-09-23T05:31:49.834Z,4.85
2022-09-23T05:33:55.146Z,5.01
2022-09-23T05:35:57.040Z,5.09
2022-09-23T05:37:59.919Z,5.16
2022-09-23T05:40:02.482Z,5.25
2022-09-23T05:42:05.620Z,5.32
2022-09-23T05:44:07.593Z,5.41
2022-09-23T05:46:16.618Z,5.43
2022-09-23T05:48:19.577Z,5.47
2022-09-23T05:50:21.718Z,5.45
2022-09-23T05:52:24.803Z,5.62
2022-09-23T05:54:26.712Z,5.64
2022-09-23T05:56:28.894Z,5.71
2022-09-23T05:58:30.775Z,5.72
2022-09-23T06:00:32.628Z,5.74
2022-09-23T06:02:35.700Z,5.79
2022-09-23T06:04:40.047Z,5.72
2022-09-23T06:06:47.007Z,5.68
2022-09-23T06:08:48.990Z,5.83
2022-09-23T06:10:54.398Z,5.95
2022-09-23T06:12:57.626Z,6.00
2022-09-23T06:15:01.433Z,6.13
2022-09-23T06:17:05.837Z,6.09
2022-09-23T06:19:10.063Z,6.06
2022-09-23T06:21:15.176Z,5.93
2022-09-23T06:23:16.987Z,5.97
2022-09-23T06:25:19.725Z,6.27
2022-09-23T06:27:21.601Z,6.35
2022-09-23T06:29:23.645Z,6.29
2022-09-23T06:31:26.844Z,6.25
2022-09-23T06:33:36.852Z,6.48
2022-09-23T06:35:39.380Z,6.67
2022-09-23T06:37:42.481Z,6.84
2022-09-23T06:39:46.585Z,6.71
2022-09-23T06:41:48.579Z,7.01
2022-09-23T06:43:50.464Z,6.96
2022-09-23T06:46:04.328Z,7.08
2022-09-23T06:48:08.599Z,7.05
2022-09-23T06:50:12.833Z,6.98
2022-09-23T06:52:14.682Z,7.13
2022-09-23T06:54:17.598Z,7.25
2022-09-23T06:56:22.250Z,7.31
2022-09-23T06:58:24.064Z,7.48
2022-09-23T07:00:26.994Z,7.44
2022-09-23T07:02:29.005Z,7.55
2022-09-23T07:04:31.009Z,7.51
2022-09-23T07:06:33.926Z,7.47
2022-09-23T07:08:37.615Z,7.62
2022-09-23T07:10:39.503Z,7.63
2022-09-23T07:12:41.922Z,7.78
2022-09-23T07:14:44.288Z,8.04
2022-09-23T07:16:49.162Z,7.80
2022-09-23T07:18:52.242Z,7.91
2022-09-23T07:20:59.004Z,8.03
2022-09-23T07:23:00.856Z,8.08
2022-09-23T07:25:04.386Z,8.08
2022-09-23T07:27:06.271Z,8.23
2022-09-23T07:29:08.241Z,8.34
2022-09-23T07:31:20.873Z,8.21
2022-09-23T07:33:32.434Z,8.56
2022-09-23T07:35:39.726Z,8.45
2022-09-23T07:37:41.676Z,8.32
2022-09-23T07:39:44.703Z,8.73
2022-09-23T07:41:47.530Z,9.37
2022-09-23T07:43:55.739Z,8.94
2022-09-23T07:45:57.791Z,9.14
2022-09-23T07:48:03.790Z,9.67
2022-09-23T07:50:07.973Z,9.67
2022-09-23T07:52:10.046Z,9.34
2022-09-23T07:54:15.277Z,9.34
2022-09-23T07:56:21.019Z,9.68
2022-09-23T07:58:23.652Z,10.14
2022-09-23T08:00:25.571Z,9.99
2022-09-23T08:02:27.599Z,9.88
2022-09-23T08:04:31.334Z,9.91
2022-09-23T08:06:34.718Z,10.77
2022-09-23T08:08:40.571Z,10.33
2022-09-23T08:10:42.930Z,10.11
2022-09-23T08:12:46.657Z,10.03
2022-09-23T08:14:52.826Z,11.37
2022-09-23T08:16:55.745Z,11.53
2022-09-23T08:18:57.686Z,12.10
2022-09-23T08:21:00.667Z,12.26
2022-09-23T08:23:03.645Z,12.63
2022-09-23T08:25:08.372Z,12.45
2022-09-23T08:27:12.897Z,12.55
2022-09-23T08:29:22.937Z,13.33
2022-09-23T08:31:24.923Z,13.38
2022-09-23T08:33:26.929Z,13.32
2022-09-23T08:35:33.879Z,13.66
2022-09-23T08:37:36.785Z,13.69
2022-09-23T08:39:38.731Z,13.72
2022-09-23T08:41:57.489Z,14.40
2022-09-23T08:44:04.818Z,14.87
2022-09-23T08:46:13.633Z,14.43
2022-09-23T08:48:20.991Z,14.33
2022-09-23T08:50:28.998Z,14.30
2022-09-23T08:52:49.830Z,14.37
2022-09-23T08:54:55.308Z,14.44
2022-09-23T08:57:01.762Z,14.36
2022-09-23T08:59:15.032Z,14.82
2022-09-23T09:01:20.836Z,15.36
2022-09-23T09:03:38.777Z,15.40
2022-09-23T09:05:53.611Z,15.22
2022-09-23T09:08:00.615Z,15.54
2022-09-23T09:10:24.333Z,15.41
2022-09-23T09:12:44.526Z,16.06
2022-09-23T09:14:58.223Z,15.86
2022-09-23T09:17:24.852Z,16.16
2022-09-23T09:19:42.961Z,16.19
2022-09-23T09:21:48.021Z,16.19
2022-09-23T09:24:02.223Z,15.09
2022-09-23T09:26:06.588Z,15.23
2022-09-23T09:28:51.408Z,14.86
2022-09-23T09:30:58.087Z,14.32
2022-09-23T09:33:04.652Z,13.86
2022-09-23T09:35:40.988Z,13.99
2022-09-23T09:37:47.993Z,13.53
2022-09-23T09:39:50.916Z,13.37
2022-09-23T09:41:58.878Z,13.22
2022-09-23T09:44:03.766Z,13.15
2022-09-23T09:46:34.297Z,12.85
2022-09-23T09:48:38.566Z,12.77
2022-09-23T09:50:52.317Z,12.66
2022-09-23T09:53:16.120Z,13.35
2022-09-23T09:55:27.503Z,14.16
2022-09-23T09:57:39.519Z,14.87
2022-09-23T09:59:43.226Z,15.26
2022-09-23T10:01:46.401Z,14.48
2022-09-23T10:03:55.638Z,14.00
2022-09-23T10:06:18.735Z,13.50
2022-09-23T10:08:32.569Z,13.90
2022-09-23T10:10:38.454Z,14.40
2022-09-23T10:12:49.994Z,14.98
2022-09-23T10:14:56.149Z,15.43
2022-09-23T10:17:06.775Z,14.97
2022-09-23T10:19:29.535Z,15.10
2022-09-23T10:21:37.266Z,15.63
2022-09-23T10:23:42.636Z,16.23
2022-09-23T10:26:00.329Z,16.26
2022-09-23T10:28:37.680Z,16.91
2022-09-23T10:30:39.744Z,17.25
2022-09-23T10:32:45.622Z,17.10
2022-09-23T10:35:04.905Z,15.82
2022-09-23T10:37:32.083Z,15.58
2022-09-23T10:39:52.649Z,15.82
2022-09-23T10:42:57.845Z,14.70
2022-09-23T10:45:28.176Z,15.36
2022-09-23T10:47:54.200Z,14.93
2022-09-23T10:50:03.965Z,14.75
2022-09-23T10:52:15.234Z,15.02
2022-09-23T10:54:38.701Z,15.25
2022-09-23T10:56:46.763Z,15.34
2022-09-23T10:59:14.885Z,15.13
2022-09-23T11:01:32.294Z,15.23
2022-09-23T11:03:57.597Z,14.90
2022-09-23T11:06:20.512Z,14.34
2022-09-23T11:08:34.483Z,14.00
2022-09-23T11:11:11.713Z,13.88
2022-09-23T11:13:40.792Z,13.56
2022-09-23T11:16:07.306Z,13.40
2022-09-23T11:18:29.423Z,13.71
2022-09-23T11:20:53.173Z,14.33
2022-09-23T11:23:32.488Z,14.71
2022-09-23T11:25:43.677Z,14.36
2022-09-23T11:28:04.073Z,14.09
2022-09-23T11:30:14.317Z,13.83
2022-09-23T11:32:40.484Z,13.87
2022-09-23T11:35:15.326Z,13.80
2022-09-23T11:37:40.313Z,14.38
2022-09-23T11:39:50.142Z,14.75
2022-09-23T11:41:56.632Z,14.93
2022-09-23T11:44:37.532Z,14.86
2022-09-23T11:46:51.117Z,14.39
2022-09-23T11:49:18.702Z,14.25
2022-09-23T11:51:38.207Z,14.03
2022-09-23T11:53:44.384Z,13.98
2022-09-23T11:55:58.386Z,14.23
2022-09-23T11:58:23.188Z,14.44
2022-09-23T12:00:34.530Z,14.26
2022-09-23T12:03:04.299Z,14.19
2022-09-23T12:05:20.363Z,14.19
2022-09-23T12:07:28.308Z,14.24
2022-09-23T12:09:58.657Z,14.14
2022-09-23T12:12:47.991Z,14.28
2022-09-23T12:15:17.076Z,14.11
2022-09-23T12:18:01.827Z,13.87
2022-09-23T12:20:16.310Z,13.69
2022-09-23T12:22:51.726Z,13.63
2022-09-23T12:25:16.335Z,13.93
2022-09-23T12:27:37.614Z,14.42
2022-09-23T12:29:40.984Z,14.63
2022-09-23T12:31:46.701Z,14.85
2022-09-23T12:33:52.494Z,14.88
2022-09-23T12:36:02.423Z,15.03
2022-09-23T12:38:20.325Z,14.94
2022-09-23T12:40:43.981Z,14.87
2022-09-23T12:42:48.121Z,14.92
2022-09-23T12:44:50.815Z,14.88
2022-09-23T12:47:12.648Z,14.64
2022-09-23T12:49:29.397Z,14.52
2022-09-23T12:51:34.843Z,14.79
2022-09-23T12:53:40.975Z,14.88
2022-09-23T12:55:46.571Z,14.87
2022-09-23T12:57:50.751Z,15.12
2022-09-23T12:59:55.928Z,14.98
2022-09-23T13:02:45.564Z,15.20
2022-09-23T13:05:17.816Z,14.80
2022-09-23T13:07:27.319Z,14.54
2022-09-23T13:09:32.107Z,14.44
2022-09-23T13:11:37.338Z,14.63
2022-09-23T13:13:44.832Z,14.85
2022-09-23T13:15:48.579Z,14.91
2022-09-23T13:17:50.542Z,14.88
2022-09-23T13:20:05.438Z,14.93
2022-09-23T13:22:11.017Z,14.86
2022-09-23T13:24:25.186Z,15.07
2022-09-23T13:26:32.513Z,14.96
2022-09-23T13:28:58.752Z,14.87
2022-09-23T13:31:06.426Z,14.85
2022-09-23T13:33:16.840Z,14.97
2022-09-23T13:35:30.234Z,15.39
2022-09-23T13:37:42.987Z,15.22
2022-09-23T13:39:44.838Z,15.42
2022-09-23T13:41:47.990Z,15.51
2022-09-23T13:43:55.541Z,15.44
2022-09-23T13:45:58.422Z,15.14
2022-09-23T13:48:13.840Z,14.98
2022-09-23T13:50:25.041Z,14.69
2022-09-23T13:52:31.769Z,14.67
2022-09-23T13:54:46.555Z,14.49
2022-09-23T13:56:51.081Z,14.43
2022-09-23T13:58:53.278Z,14.38
2022-09-23T14:00:56.001Z,14.32
2022-09-23T14:02:57.953Z,14.23
2022-09-23T14:05:12.672Z,14.19
2022-09-23T14:07:17.017Z,14.08
2022-09-23T14:09:28.421Z,14.08
2022-09-23T14:11:33.787Z,13.97
2022-09-23T14:13:42.964Z,13.90
2022-09-23T14:15:46.771Z,13.84
2022-09-23T14:18:00.602Z,13.87
2022-09-23T14:20:03.017Z,13.74
2022-09-23T14:22:08.135Z,13.72
2022-09-23T14:24:20.743Z,13.69
2022-09-23T14:26:24.335Z,13.70
2022-09-23T14:28:28.231Z,13.74
2022-09-23T14:30:31.067Z,13.79
2022-09-23T14:32:34.146Z,13.89
2022-09-23T14:34:49.410Z,13.92
2022-09-23T14:37:10.063Z,13.88
2022-09-23T14:39:12.945Z,13.82
2022-09-23T14:41:26.504Z,13.71
2022-09-23T14:43:30.519Z,13.61
2022-09-23T14:45:38.251Z,13.55
2022-09-23T14:47:47.064Z,13.50
2022-09-23T14:50:10.748Z,13.58
2022-09-23T14:52:13.841Z,13.60
2022-09-23T14:54:37.564Z,13.60
2022-09-23T14:56:45.492Z,13.75
2022-09-23T14:58:58.930Z,13.83
2022-09-23T15:01:04.540Z,13.70
2022-09-23T15:03:17.135Z,13.67
2022-09-23T15:05:31.712Z,13.68
2022-09-23T15:07:36.237Z,13.67
2022-09-23T15:09:42.450Z,13.76
2022-09-23T15:11:44.380Z,13.63
2022-09-23T15:13:51.158Z,13.62
2022-09-23T15:15:55.581Z,13.57
2022-09-23T15:18:14.387Z,13.42
2022-09-23T15:20:16.204Z,13.35
2022-09-23T15:22:18.394Z,13.31
2022-09-23T15:24:36.121Z,13.23
2022-09-23T15:26:48.715Z,13.22
2022-09-23T15:28:56.043Z,13.16
2022-09-23T15:30:59.002Z,13.07
2022-09-23T15:33:01.144Z,12.94
2022-09-23T15:35:04.230Z,12.82
2022-09-23T15:37:06.143Z,12.71
2022-09-23T15:39:11.134Z,12.64
2022-09-23T15:41:17.493Z,12.50
2022-09-23T15:43:22.763Z,12.46
2022-09-23T15:45:35.855Z,12.44
2022-09-23T15:47:38.215Z,12.32
2022-09-23T15:49:40.286Z,12.25
2022-09-23T15:51:43.214Z,12.22
2022-09-23T15:53:45.091Z,12.18
2022-09-23T15:55:47.071Z,12.04
2022-09-23T15:57:52.289Z,11.85
2022-09-23T15:59:58.529Z,11.78
2022-09-23T16:02:06.927Z,11.77
2022-09-23T16:04:10.480Z,11.61
2022-09-23T16:06:14.037Z,11.65
2022-09-23T16:08:19.874Z,11.55
2022-09-23T16:10:22.951Z,11.46
2022-09-23T16:12:27.226Z,11.37
2022-09-23T16:14:29.064Z,11.28
2022-09-23T16:16:32.109Z,11.22
2022-09-23T16:18:35.064Z,11.07
2022-09-23T16:20:42.137Z,10.97
2022-09-23T16:22:56.312Z,10.94
2022-09-23T16:24:58.233Z,10.85
2022-09-23T16:27:04.984Z,10.66
2022-09-23T16:29:07.042Z,10.62
2022-09-23T16:31:10.873Z,10.53
2022-09-23T16:33:12.767Z,10.46
2022-09-23T16:35:16.814Z,10.27
2022-09-23T16:37:19.736Z,10.09
2022-09-23T16:39:23.070Z,10.14
2022-09-23T16:41:27.068Z,10.24
2022-09-23T16:43:35.134Z,10.07
2022-09-23T16:45:39.477Z,9.87
2022-09-23T16:47:49.972Z,9.74
2022-09-23T16:49:51.829Z,9.68
2022-09-23T16:51:54.771Z,9.42
2022-09-23T16:53:58.345Z,9.37
2022-09-23T16:56:07.883Z,9.35
2022-09-23T16:58:09.817Z,9.37
2022-09-23T17:00:34.099Z,9.26
2022-09-23T17:02:56.695Z,9.07
2022-09-23T17:04:58.641Z,9.26
2022-09-23T17:07:00.491Z,9.14
2022-09-23T17:09:02.838Z,8.95
2022-09-23T17:11:05.539Z,9.01
2022-09-23T17:13:11.252Z,8.83
2022-09-23T17:15:13.420Z,8.77
2022-09-23T17:17:15.653Z,8.48
2022-09-23T17:19:17.516Z,8.19
2022-09-23T17:21:19.400Z,8.22
2022-09-23T17:23:21.313Z,8.50
2022-09-23T17:25:24.231Z,8.43
2022-09-23T17:27:27.344Z,8.45
2022-09-23T17:29:31.459Z,8.51
2022-09-23T17:31:34.958Z,8.48
2022-09-23T17:33:38.150Z,8.56
2022-09-23T17:35:41.949Z,8.28
2022-09-23T17:37:43.968Z,8.13
2022-09-23T17:39:46.414Z,7.99
2022-09-23T17:41:48.373Z,8.11
2022-09-23T17:43:58.719Z,8.20
2022-09-23T17:46:06.979Z,8.28
2022-09-23T17:48:08.886Z,8.61
2022-09-23T17:50:10.771Z,8.82
2022-09-23T17:52:13.703Z,8.94
2022-09-23T17:54:15.541Z,9.00
2022-09-23T17:56:25.550Z,9.06
2022-09-23T17:58:29.273Z,9.11
2022-09-23T18:00:31.168Z,9.14
2022-09-23T18:02:34.074Z,9.17
2022-09-23T18:04:35.963Z,9.16
2022-09-23T18:06:43.834Z,9.19
2022-09-23T18:08:48.187Z,9.36
2022-09-23T18:10:52.079Z,9.32
2022-09-23T18:12:54.975Z,9.25
2022-09-23T18:14:56.890Z,9.17
2022-09-23T18:16:58.747Z,9.32
2022-09-23T18:19:02.056Z,9.46
2022-09-23T18:21:05.377Z,9.44
2022-09-23T18:23:07.234Z,9.40
2022-09-23T18:25:22.987Z,9.39
2022-09-23T18:27:34.657Z,9.40
2022-09-23T18:29:36.530Z,9.51
2022-09-23T18:31:39.047Z,9.62
2022-09-23T18:33:44.085Z,9.66
2022-09-23T18:35:45.991Z,9.74
2022-09-23T18:37:50.596Z,9.72
2022-09-23T18:39:52.514Z,9.71
2022-09-23T18:41:56.379Z,9.83
2022-09-23T18:43:58.691Z,9.76
2022-09-23T18:46:03.063Z,9.80
2022-09-23T18:48:23.461Z,9.81
2022-09-23T18:50:44.149Z,9.93
2022-09-23T18:52:46.010Z,9.92
2022-09-23T18:54:49.869Z,9.92
2022-09-23T18:56:55.399Z,9.96
2022-09-23T18:58:57.305Z,10.02
2022-09-23T19:01:07.189Z,10.07
2022-09-23T19:03:09.230Z,10.08
2022-09-23T19:05:11.239Z,10.01
2022-09-23T19:07:13.025Z,9.97
2022-09-23T19:09:16.815Z,10.03
2022-09-23T19:11:19.205Z,10.07
2022-09-23T19:13:22.034Z,10.00
2022-09-23T19:15:23.856Z,9.93
2022-09-23T19:17:26.766Z,9.94
2022-09-23T19:19:31.843Z,9.89
2022-09-23T19:21:34.075Z,9.91
2022-09-23T19:23:36.374Z,9.83
2022-09-23T19:25:38.231Z,9.70
2022-09-23T19:27:40.415Z,9.45
2022-09-23T19:29:43.275Z,9.46
2022-09-23T19:31:46.266Z,9.55
2022-09-23T19:33:56.646Z,9.36
2022-09-23T19:35:58.746Z,9.24
2022-09-23T19:38:01.638Z,9.21
2022-09-23T19:40:07.613Z,9.16
2022-09-23T19:42:09.720Z,9.19
2022-09-23T19:44:12.314Z,9.25
2022-09-23T19:46:14.106Z,9.24
2022-09-23T19:48:16.045Z,9.18
2022-09-23T19:50:19.288Z,9.14
2022-09-23T19:52:21.131Z,9.09
2022-09-23T19:54:23.526Z,9.12
2022-09-23T19:56:26.735Z,9.04
2022-09-23T19:58:28.565Z,9.05
2022-09-23T20:00:31.865Z,8.98
2022-09-23T20:02:33.904Z,8.79
2022-09-23T20:04:35.769Z,8.71
2022-09-23T20:06:41.152Z,8.74
2022-09-23T20:08:44.564Z,8.62
2022-09-23T20:10:48.377Z,8.45
2022-09-23T20:12:50.351Z,8.35
2022-09-23T20:14:52.226Z,8.29
2022-09-23T20:16:54.932Z,8.17
2022-09-23T20:18:56.806Z,8.03
2022-09-23T20:20:58.662Z,8.25
2022-09-23T20:23:00.562Z,7.83
2022-09-23T20:25:02.802Z,7.70
2022-09-23T20:27:10.335Z,7.53
2022-09-23T20:29:12.385Z,7.55
2022-09-23T20:31:15.757Z,7.49
2022-09-23T20:33:17.664Z,7.47
2022-09-23T20:35:19.496Z,7.29
2022-09-23T20:37:21.853Z,7.29
2022-09-23T20:39:23.823Z,7.11
2022-09-23T20:41:27.078Z,7.09
2022-09-23T20:43:34.651Z,7.01
2022-09-23T20:45:36.548Z,6.75
2022-09-23T20:47:39.365Z,6.75
2022-09-23T20:49:44.108Z,6.58
2022-09-23T20:51:48.663Z,6.48
2022-09-23T20:53:53.121Z,6.36
2022-09-23T20:55:57.568Z,6.38
2022-09-23T20:58:02.325Z,6.56
2022-09-23T21:00:05.203Z,6.58
2022-09-23T21:02:11.092Z,6.45
2022-09-23T21:04:14.059Z,6.47
2022-09-23T21:06:19.127Z,6.53
2022-09-23T21:08:20.974Z,6.53
2022-09-23T21:10:22.938Z,6.45
2022-09-23T21:12:24.845Z,6.42
2022-09-23T21:14:28.665Z,6.37
2022-09-23T21:16:31.066Z,6.19
2022-09-23T21:18:33.036Z,6.23
2022-09-23T21:20:34.960Z,6.25
2022-09-23T21:22:36.941Z,6.04
2022-09-23T21:25:21.443Z,6.15
2022-09-23T21:27:00.466Z,6.11
2022-09-23T21:29:02.617Z,6.06
2022-09-23T21:31:07.846Z,6.05
2022-09-23T21:33:09.722Z,5.89
2022-09-23T21:35:11.631Z,5.67
2022-09-23T21:37:13.530Z,5.74
2022-09-23T21:39:15.461Z,5.78
2022-09-23T21:41:17.970Z,5.82
2022-09-23T21:43:20.253Z,5.85
2022-09-23T21:45:22.259Z,5.72
2022-09-23T21:47:24.120Z,5.71
2022-09-23T21:49:25.986Z,5.51
2022-09-23T21:51:31.579Z,5.43
2022-09-23T21:53:36.516Z,5.30
2022-09-23T21:55:38.447Z,5.30
2022-09-23T21:57:42.453Z,5.23
2022-09-23T21:59:44.297Z,5.45
2022-09-23T22:01:51.799Z,5.44
2022-09-23T22:03:58.494Z,5.54
2022-09-23T22:06:08.710Z,5.53
2022-09-23T22:08:10.862Z,5.35
2022-09-23T22:10:12.758Z,5.34
2022-09-23T22:12:16.649Z,5.24
2022-09-23T22:14:21.777Z,5.39
2022-09-23T22:16:24.602Z,5.19
2022-09-23T22:18:26.488Z,5.10
2022-09-23T22:20:28.398Z,5.06
2022-09-23T22:22:30.596Z,5.12
2022-09-23T22:24:32.403Z,5.12
2022-09-23T22:26:42.781Z,4.97
2022-09-23T22:29:04.407Z,4.74
2022-09-23T22:31:25.098Z,4.62
2022-09-23T22:33:28.995Z,4.86
2022-09-23T22:35:30.813Z,4.77
2022-09-23T22:37:35.051Z,4.70
2022-09-23T22:39:36.937Z,4.61
2022-09-23T22:41:41.287Z,4.70
2022-09-23T22:43:43.203Z,4.75
2022-09-23T22:45:52.409Z,4.82
2022-09-23T22:47:54.345Z,4.82
2022-09-23T22:49:57.181Z,4.79
2022-09-23T22:51:59.877Z,4.78
2022-09-23T22:54:01.831Z,4.85
2022-09-23T22:56:03.826Z,4.74
2022-09-23T22:58:21.537Z,4.66
2022-09-23T23:00:29.287Z,4.63
2022-09-23T23:02:33.242Z,4.77
2022-09-23T23:04:37.288Z,4.68
2022-09-23T23:06:39.693Z,4.75
2022-09-23T23:08:41.489Z,4.82
2022-09-23T23:10:43.971Z,4.60
2022-09-23T23:12:47.121Z,4.61
2022-09-23T23:14:49.593Z,4.68
2022-09-23T23:16:51.504Z,4.62
2022-09-23T23:18:54.023Z,4.52
2022-09-23T23:20:57.162Z,4.49
2022-09-23T23:23:02.319Z,4.29
2022-09-23T23:25:05.824Z,4.23
2022-09-23T23:27:08.777Z,4.32
2022-09-23T23:29:13.002Z,4.23
2022-09-23T23:31:16.568Z,4.13
2022-09-23T23:33:18.604Z,4.17
2022-09-23T23:35:20.507Z,4.23
2022-09-23T23:37:29.635Z,4.29
2022-09-23T23:39:31.543Z,4.36
2022-09-23T23:41:34.541Z,4.30
2022-09-23T23:43:37.379Z,4.27
2022-09-23T23:45:39.275Z,4.31
2022-09-23T23:47:42.222Z,4.18
2022-09-23T23:49:44.172Z,4.21
2022-09-23T23:51:46.618Z,4.20
2022-09-23T23:53:49.139Z,4.10
2022-09-23T23:55:51.531Z,4.12
2022-09-23T23:57:53.821Z,3.89
2022-09-23T23:59:55.673Z,4.05
